createdAt,value
2018-05-04T00:36:54.248Z,97498.66
2018-05-04T00:39:23.221Z,97497.41
2018-05-04T00:41:51.773Z,97496.17
2018-05-04T00:44:20.369Z,97506.44
2018-05-04T00:46:48.961Z,97512.46
2018-05-04T00:49:29.956Z,97510.12
2018-05-04T00:51:58.544Z,97506.11
2018-05-04T00:54:27.137Z,97509.12
2018-05-04T00:56:55.788Z,97502.64
2018-05-04T00:59:24.857Z,97497.88
2018-05-04T01:01:54.111Z,97511.19
2018-05-04T01:04:22.705Z,97510.13
2018-05-04T01:06:51.404Z,97507.25
2018-05-04T01:09:20.214Z,97506.07
2018-05-04T01:11:48.857Z,97508.98
2018-05-04T01:14:17.482Z,97502.89
2018-05-04T01:16:46.850Z,97499.91
2018-05-04T01:19:15.612Z,97492.55
2018-05-04T01:21:44.975Z,97488.39
2018-05-04T01:24:13.600Z,97486.95
2018-05-04T01:26:48.006Z,97494.92
2018-05-04T01:29:17.187Z,97508.74
2018-05-04T01:31:46.545Z,97507.84
2018-05-04T01:34:15.224Z,97497.58
2018-05-04T01:36:44.737Z,97500.27
2018-05-04T01:39:13.494Z,97504.73
2018-05-04T01:41:42.249Z,97513.99
2018-05-04T01:44:10.923Z,97510.05
2018-05-04T01:50:01.301Z,97514.41
2018-05-04T01:52:30.179Z,97514.83
2018-05-04T01:54:59.709Z,97522.38
2018-05-04T01:57:28.454Z,97520.58
2018-05-04T01:59:57.220Z,97523.61
2018-05-04T02:02:26.706Z,97524.44
2018-05-04T02:04:56.108Z,97526.83
2018-05-04T02:07:25.038Z,97527.05
2018-05-04T02:09:53.597Z,97527.71
2018-05-04T02:15:51.465Z,97531.48
2018-05-04T02:18:28.178Z,97523.02
2018-05-04T02:21:04.018Z,97522.61
2018-05-04T02:23:33.492Z,97525.34
2018-05-04T02:26:02.159Z,97524.85
2018-05-04T02:28:30.762Z,97525.52
2018-05-04T02:30:59.599Z,97524.52
2018-05-04T02:33:34.278Z,97521.95
2018-05-04T02:36:02.964Z,97519.92
2018-05-04T02:38:31.613Z,97515.06
2018-05-04T02:41:01.169Z,97520.23
2018-05-04T02:43:30.205Z,97527.62
2018-05-04T02:45:59.333Z,97521.29
2018-05-04T02:48:28.081Z,97526.58
2018-05-04T02:51:00.305Z,97523.11
2018-05-04T02:53:29.017Z,97524.24
2018-05-04T02:55:57.622Z,97525.01
2018-05-04T02:58:26.176Z,97532.14
2018-05-04T03:00:54.803Z,97534.13
2018-05-04T03:03:48.210Z,97528.69
2018-05-04T03:06:16.905Z,97535.92
2018-05-04T03:11:43.363Z,97539.87
2018-05-04T03:14:12.138Z,97545.31
2018-05-04T03:16:40.793Z,97539.31
2018-05-04T03:19:09.523Z,97539.97
2018-05-04T03:21:39.107Z,97543.66
2018-05-04T03:24:07.727Z,97545.77
2018-05-04T03:26:51.082Z,97549.39
2018-05-04T03:29:19.754Z,97548.25
2018-05-04T03:31:48.344Z,97553.57
2018-05-04T03:34:16.963Z,97553.69
2018-05-04T03:36:46.401Z,97554.18
2018-05-04T03:42:32.237Z,97560.25
2018-05-04T03:45:02.009Z,97556.97
2018-05-04T03:47:40.538Z,97566.42
2018-05-04T03:50:09.122Z,97571.93
2018-05-04T03:52:37.778Z,97574.91
2018-05-04T03:55:06.415Z,97574.39
2018-05-04T04:01:06.276Z,97583.14
2018-05-04T04:03:52.852Z,97586.18
2018-05-04T04:06:21.605Z,97590.05
2018-05-04T04:08:50.282Z,97593.09
2018-05-04T04:11:18.938Z,97599.00
2018-05-04T04:16:43.604Z,97599.89
2018-05-04T04:19:12.185Z,97603.97
2018-05-04T04:21:48.342Z,97605.05
2018-05-04T04:24:17.712Z,97613.18
2018-05-04T04:26:46.367Z,97620.50
2018-05-04T04:29:23.836Z,97625.00
2018-05-04T04:31:53.034Z,97625.52
2018-05-04T04:34:22.038Z,97629.59
2018-05-04T04:36:50.660Z,97629.34
2018-05-04T04:39:19.468Z,97634.84
2018-05-04T04:41:48.213Z,97628.03
2018-05-04T04:44:16.888Z,97636.91
2018-05-04T04:46:45.521Z,97635.60
2018-05-04T04:49:14.076Z,97632.31
2018-05-04T04:51:42.828Z,97637.05
2018-05-04T04:54:11.558Z,97637.89
2018-05-04T05:09:51.887Z,97647.98
2018-05-04T05:12:21.385Z,97650.95
2018-05-04T05:14:50.144Z,97644.70
2018-05-04T05:17:19.604Z,97649.97
2018-05-04T05:19:48.337Z,97655.41
2018-05-04T06:44:15.322Z,97724.77
2018-05-04T06:46:44.009Z,97723.11
2018-05-04T06:49:12.705Z,97721.23
2018-05-04T06:51:41.249Z,97726.88
2018-05-04T06:54:10.005Z,97732.98
2018-05-04T06:56:42.002Z,97735.78
2018-05-04T06:59:11.580Z,97731.67
2018-05-04T07:01:40.693Z,97734.91
2018-05-04T07:04:21.266Z,97737.55
2018-05-04T07:06:50.262Z,97741.59
2018-05-04T07:09:19.009Z,97743.56
2018-05-04T07:11:47.901Z,97747.52
2018-05-04T07:14:18.033Z,97743.25
2018-05-04T07:16:47.030Z,97749.48
2018-05-04T07:19:16.194Z,97754.26
2018-05-04T07:21:45.546Z,97761.52
2018-05-04T07:24:15.610Z,97758.39
2018-05-04T07:26:44.520Z,97762.42
2018-05-04T07:29:13.547Z,97753.27
2018-05-04T07:31:42.229Z,97761.92
2018-05-04T07:34:27.811Z,97768.81
2018-05-04T07:36:57.660Z,97764.27
2018-05-04T07:39:30.389Z,97765.58
2018-05-04T07:41:59.586Z,97762.18
2018-05-04T07:44:28.599Z,97759.75
2018-05-04T07:46:57.305Z,97766.97
2018-05-04T07:49:26.003Z,97765.41
2018-05-04T07:52:06.653Z,97772.42
2018-05-04T07:54:36.729Z,97787.70
2018-05-04T08:09:01.348Z,97797.05
2018-05-04T08:11:30.111Z,97801.77
2018-05-04T08:13:58.758Z,97797.63
2018-05-04T08:16:27.890Z,97805.98
2018-05-04T08:18:57.254Z,97809.53
2018-05-04T08:21:26.248Z,97811.42
2018-05-04T08:23:55.663Z,97810.41
2018-05-04T08:26:25.259Z,97809.91
2018-05-04T08:29:09.866Z,97806.84
2018-05-04T08:31:39.043Z,97809.86
2018-05-04T08:34:07.969Z,97813.11
2018-05-04T08:36:37.262Z,97816.19
2018-05-04T08:51:12.353Z,97824.77
2018-05-04T08:53:41.585Z,97829.34
2018-05-04T08:56:10.537Z,97827.13
2018-05-04T08:58:40.100Z,97831.38
2018-05-04T09:01:08.876Z,97839.56
2018-05-04T09:03:39.735Z,97840.55
2018-05-04T09:06:09.176Z,97843.66
2018-05-04T09:08:38.933Z,97837.88
2018-05-04T09:23:03.180Z,97852.53
2018-05-04T09:25:31.878Z,97851.95
2018-05-04T09:28:00.584Z,97859.48
2018-05-04T09:30:30.118Z,97852.57
2018-05-04T09:32:58.832Z,97859.89
2018-05-04T09:35:27.581Z,97861.31
2018-05-04T09:37:58.280Z,97861.72
2018-05-04T09:40:26.941Z,97855.10
2018-05-04T09:42:55.829Z,97860.02
2018-05-04T09:45:26.491Z,97857.80
2018-05-04T10:38:57.589Z,97864.25
2018-05-04T10:41:28.229Z,97860.24
2018-05-04T10:43:57.228Z,97861.94
2018-05-04T10:46:26.174Z,97865.98
2018-05-04T10:48:55.034Z,97863.95
2018-05-04T10:51:23.591Z,97864.46
2018-05-04T10:53:52.596Z,97870.19
2018-05-04T10:56:22.681Z,97869.85
2018-05-04T10:58:52.183Z,97872.69
2018-05-04T11:01:21.812Z,97871.87
2018-05-04T11:03:51.282Z,97859.45
2018-05-04T11:06:20.081Z,97863.95
2018-05-04T11:08:50.397Z,97860.42
2018-05-04T11:11:19.964Z,97858.33
2018-05-04T11:13:48.793Z,97868.11
2018-05-04T11:16:24.354Z,97864.47
2018-05-04T11:18:56.378Z,97864.50
2018-05-04T11:21:26.343Z,97870.49
2018-05-04T11:23:55.163Z,97880.36
2018-05-04T11:26:23.863Z,97884.22
2018-05-04T11:28:52.907Z,97884.52
2018-05-04T11:31:22.557Z,97902.15
2018-05-04T11:33:51.539Z,97905.83
2018-05-04T11:36:20.754Z,97902.09
2018-05-04T11:38:49.579Z,97907.20
2018-05-04T11:41:18.431Z,97908.88
2018-05-04T11:44:01.841Z,97915.62
2018-05-04T11:46:30.608Z,97929.84
2018-05-04T11:52:08.162Z,97937.30
2018-05-04T11:54:36.901Z,97936.89
2018-05-04T11:57:06.455Z,97942.30
2018-05-04T11:59:35.193Z,97934.79
2018-05-04T12:02:06.028Z,97944.29
2018-05-04T13:25:32.103Z,97985.74
2018-05-04T13:28:01.022Z,97983.17
2018-05-04T13:30:30.680Z,97988.48
2018-05-04T13:32:59.568Z,97985.16
2018-05-04T13:35:28.241Z,97985.38
2018-05-04T13:38:08.321Z,97982.33
2018-05-04T13:40:37.898Z,97984.66
2018-05-04T13:45:44.148Z,97985.62
2018-05-04T13:48:12.883Z,97977.91
2018-05-04T13:50:41.551Z,97978.47
2018-05-04T13:53:10.187Z,97975.59
2018-05-04T13:55:39.221Z,97979.18
2018-05-04T13:58:10.115Z,97976.34
2018-05-04T14:00:40.537Z,97980.97
2018-05-04T14:03:09.417Z,97982.89
2018-05-04T14:05:38.531Z,97991.75
2018-05-04T14:08:08.084Z,97985.04
2018-05-04T14:10:36.938Z,97987.47
2018-05-04T14:13:06.470Z,97991.06
2018-05-04T14:15:35.211Z,97985.41
2018-05-04T14:18:04.076Z,97997.33
2018-05-04T14:20:54.133Z,97991.47
2018-05-04T14:23:22.829Z,98003.36
2018-05-04T14:25:51.717Z,97995.81
2018-05-04T14:28:20.547Z,97988.95
2018-05-04T14:30:50.342Z,97985.22
2018-05-04T14:33:19.068Z,97988.78
2018-05-04T14:35:47.698Z,97991.05
2018-05-04T14:38:16.855Z,97996.27
2018-05-04T14:40:47.403Z,98002.64
2018-05-04T14:43:16.841Z,98017.22
2018-05-04T14:45:46.112Z,98021.17
2018-05-04T14:48:16.064Z,98026.30
2018-05-04T14:50:45.762Z,98032.69
2018-05-04T14:53:15.009Z,98037.06
2018-05-04T14:55:50.876Z,98029.17
2018-05-04T14:58:19.841Z,98034.24
2018-05-04T15:00:49.387Z,98034.27
2018-05-04T15:03:19.743Z,98043.09
2018-05-04T15:05:48.873Z,98062.30
2018-05-04T15:08:17.995Z,98062.58
2018-05-04T15:10:47.080Z,98074.36
2018-05-04T15:13:16.112Z,98076.84
2018-05-04T15:15:44.984Z,98070.34
2018-05-04T15:18:13.921Z,98066.88
2018-05-04T15:20:42.822Z,98066.94
2018-05-04T15:23:12.723Z,98078.65
2018-05-04T15:25:41.644Z,98080.97
2018-05-04T15:28:10.732Z,98088.47
2018-05-04T15:30:40.434Z,98092.42
2018-05-04T15:33:10.254Z,98093.02
2018-05-04T15:35:39.328Z,98088.65
2018-05-04T15:38:10.138Z,98100.11
2018-05-04T15:40:38.788Z,98096.02
2018-05-04T15:43:07.532Z,98103.69
2018-05-04T15:45:36.253Z,98105.01
2018-05-04T15:48:10.619Z,98096.13
2018-05-04T15:50:45.671Z,98108.03
2018-05-04T15:53:16.988Z,98106.61
2018-05-04T15:55:45.956Z,98117.27
2018-05-04T15:58:15.938Z,98122.38
2018-05-04T16:00:44.754Z,98124.70
2018-05-04T16:03:13.531Z,98118.83
2018-05-04T16:05:42.371Z,98119.91
2018-05-04T16:08:11.443Z,98121.56
2018-05-04T16:10:40.188Z,98135.84
2018-05-04T16:13:09.423Z,98133.02
2018-05-04T16:15:38.852Z,98128.95
2018-05-04T16:18:08.483Z,98140.52
2018-05-04T16:20:38.848Z,98152.78
2018-05-04T16:23:11.938Z,98158.45
2018-05-04T16:25:40.645Z,98163.80
2018-05-04T16:28:11.945Z,98173.32
2018-05-04T16:30:40.943Z,98174.63
2018-05-04T16:33:10.247Z,98175.00
2018-05-04T16:35:40.440Z,98182.42
2018-05-04T16:38:09.134Z,98191.68
2018-05-04T16:40:39.187Z,98198.95
2018-05-04T16:43:08.218Z,98197.47
2018-05-04T16:45:37.670Z,98213.14
2018-05-04T16:48:12.329Z,98221.06
2018-05-04T16:50:41.435Z,98233.01
2018-05-04T16:53:10.884Z,98232.52
2018-05-04T16:55:40.729Z,98235.56
2018-05-04T16:58:10.230Z,98238.19
2018-05-04T17:00:41.938Z,98234.11
2018-05-04T17:03:11.681Z,98235.38
2018-05-04T17:05:41.551Z,98234.06
2018-05-04T17:08:11.171Z,98227.69
2018-05-04T17:10:40.524Z,98226.76
2018-05-04T17:13:09.452Z,98227.39
2018-05-04T17:15:39.057Z,98220.38
2018-05-04T17:18:07.938Z,98224.50
2018-05-04T17:20:37.337Z,98223.91
2018-05-04T17:23:06.499Z,98215.01
2018-05-04T17:25:36.453Z,98217.19
2018-05-04T17:28:05.306Z,98220.78
2018-05-04T17:30:34.246Z,98224.08
2018-05-04T17:33:03.764Z,98236.75
2018-05-04T17:35:33.098Z,98236.69
2018-05-04T17:38:03.027Z,98238.59
2018-05-04T17:40:32.393Z,98240.51
2018-05-04T17:43:01.406Z,98243.92
2018-05-04T17:45:30.294Z,98239.94
2018-05-04T17:47:59.268Z,98246.16
2018-05-04T17:50:28.333Z,98244.40
2018-05-04T17:52:57.020Z,98246.39
2018-05-04T17:55:25.738Z,98251.51
2018-05-04T17:57:55.201Z,98252.27
2018-05-04T18:00:24.642Z,98244.27
2018-05-04T18:02:53.369Z,98255.23
2018-05-04T18:05:22.279Z,98259.22
2018-05-04T18:07:51.847Z,98268.86
2018-05-04T18:10:20.946Z,98262.22
2018-05-04T18:12:49.753Z,98271.56
2018-05-04T18:15:18.405Z,98273.92
2018-05-04T18:17:47.815Z,98278.68
2018-05-04T18:20:16.535Z,98281.86
2018-05-04T18:22:45.312Z,98280.70
2018-05-04T18:25:14.443Z,98287.48
2018-05-04T18:27:43.179Z,98300.44
2018-05-04T18:30:11.934Z,98296.31
2018-05-04T18:32:41.064Z,98300.65
2018-05-04T18:35:09.768Z,98306.28
2018-05-04T18:37:38.819Z,98307.80
2018-05-04T18:40:08.800Z,98310.17
2018-05-04T18:42:38.047Z,98314.64
2018-05-04T18:45:06.716Z,98316.73
2018-05-04T18:47:36.013Z,98326.72
2018-05-04T18:50:04.999Z,98325.66
2018-05-04T18:52:33.612Z,98326.72
2018-05-04T18:55:02.517Z,98326.56
2018-05-04T18:57:31.577Z,98331.41
2018-05-04T19:00:00.467Z,98330.92
2018-05-04T19:02:50.397Z,98344.12
2018-05-04T19:05:20.870Z,98352.39
2018-05-04T19:07:49.837Z,98360.45
2018-05-04T19:10:18.753Z,98365.53
2018-05-04T19:12:47.896Z,98369.77
2018-05-04T19:15:16.629Z,98368.96
2018-05-04T19:17:46.116Z,98379.30
2018-05-04T19:20:15.349Z,98378.69
2018-05-04T19:22:45.574Z,98380.88
2018-05-04T19:25:14.842Z,98393.53
2018-05-04T19:27:44.754Z,98396.06
2018-05-04T19:30:13.646Z,98401.49
2018-05-04T19:32:42.460Z,98407.59
2018-05-04T19:35:11.257Z,98413.67
2018-05-04T19:37:40.038Z,98422.14
2018-05-04T19:40:09.044Z,98422.11
2018-05-04T19:42:37.911Z,98419.89
2018-05-04T19:45:07.332Z,98425.90
2018-05-04T19:47:36.469Z,98421.66
2018-05-04T19:50:05.037Z,98427.48
2018-05-04T19:52:34.782Z,98423.05
2018-05-04T19:55:05.304Z,98428.41
2018-05-04T19:57:37.780Z,98430.97
2018-05-04T20:00:06.893Z,98439.24
2018-05-04T20:02:36.601Z,98437.25
2018-05-04T20:05:05.320Z,98437.14
2018-05-04T20:07:37.599Z,98440.31
2018-05-04T20:10:07.298Z,98442.89
2018-05-04T20:12:36.224Z,98444.67
2018-05-04T20:15:05.638Z,98440.72
2018-05-04T20:17:34.990Z,98437.98
2018-05-04T20:20:04.544Z,98444.67
2018-05-04T20:22:33.278Z,98448.88
2018-05-04T20:25:02.318Z,98447.56
2018-05-04T20:27:31.084Z,98450.13
2018-05-04T20:30:00.262Z,98455.14
2018-05-04T20:32:30.085Z,98458.25
2018-05-04T20:34:58.766Z,98458.89
2018-05-04T20:37:28.112Z,98463.89
2018-05-04T20:39:57.137Z,98465.12
2018-05-04T20:42:26.733Z,98469.58
2018-05-04T20:44:55.590Z,98467.69
2018-05-04T20:47:25.396Z,98459.59
2018-05-04T20:49:54.661Z,98469.80
2018-05-04T20:52:23.401Z,98464.90
2018-05-04T20:54:52.094Z,98469.13
2018-05-04T20:57:20.819Z,98471.76
2018-05-04T20:59:49.576Z,98470.44
2018-05-04T21:02:18.215Z,98468.45
2018-05-04T21:04:48.202Z,98476.83
2018-05-04T21:07:16.980Z,98480.03
2018-05-04T21:09:48.932Z,98483.20
2018-05-04T21:12:18.837Z,98482.10
2018-05-04T21:14:49.565Z,98482.19
2018-05-04T21:17:18.554Z,98483.42
2018-05-04T21:19:50.688Z,98487.37
2018-05-04T21:22:20.602Z,98483.16
2018-05-04T21:24:49.836Z,98482.19
2018-05-04T21:27:19.894Z,98495.51
2018-05-04T21:29:50.504Z,98498.09
2018-05-04T21:32:19.205Z,98492.63
2018-05-04T21:34:47.942Z,98494.57
2018-05-04T21:37:16.639Z,98498.31
2018-05-04T21:39:46.315Z,98505.69
2018-05-04T21:42:15.493Z,98502.10
2018-05-04T21:44:44.525Z,98507.69
2018-05-04T21:47:14.220Z,98506.25
2018-05-04T21:49:42.957Z,98507.75
2018-05-04T21:52:12.240Z,98507.84
2018-05-04T21:54:42.469Z,98510.47
2018-05-04T21:57:11.847Z,98510.27
2018-05-04T21:59:41.834Z,98511.80
2018-05-04T22:02:10.653Z,98506.74
2018-05-04T22:04:39.347Z,98512.05
2018-05-04T22:07:08.125Z,98515.16
2018-05-04T22:09:37.845Z,98516.53
2018-05-04T22:12:06.872Z,98519.80
2018-05-04T22:14:35.442Z,98520.27
2018-05-04T22:17:04.124Z,98525.27
2018-05-04T22:19:32.931Z,98531.22
2018-05-04T22:22:01.710Z,98538.22
2018-05-04T22:24:31.127Z,98538.70
2018-05-04T22:26:59.757Z,98532.33
2018-05-04T22:29:28.540Z,98538.75
2018-05-04T22:31:57.862Z,98540.91
2018-05-04T22:34:27.241Z,98535.48
2018-05-04T22:36:55.820Z,98535.48
2018-05-04T22:39:25.033Z,98530.95
2018-05-04T22:41:54.420Z,98530.95
2018-05-04T22:44:23.321Z,98535.64
2018-05-04T22:46:51.941Z,98530.95
2018-05-04T22:49:20.530Z,98531.91
2018-05-04T22:51:49.187Z,98534.80
2018-05-04T22:54:17.869Z,98533.48
2018-05-04T22:56:47.288Z,98526.22
2018-05-04T22:59:16.763Z,98530.27
2018-05-04T23:01:45.505Z,98527.69
2018-05-04T23:04:14.401Z,98524.22
2018-05-04T23:06:43.386Z,98519.95
2018-05-04T23:09:12.168Z,98522.91
2018-05-04T23:11:41.488Z,98522.22
2018-05-04T23:14:10.796Z,98523.42
2018-05-04T23:16:39.697Z,98523.16
2018-05-04T23:19:08.340Z,98527.16
2018-05-04T23:21:36.975Z,98524.73
2018-05-04T23:24:05.542Z,98536.52
2018-05-04T23:26:34.972Z,98529.11
2018-05-04T23:29:03.670Z,98527.11
2018-05-04T23:31:33.030Z,98536.05
2018-05-04T23:34:01.679Z,98535.20
2018-05-04T23:36:30.314Z,98532.16
2018-05-04T23:38:58.951Z,98530.42
2018-05-04T23:41:28.464Z,98532.52
2018-05-04T23:43:57.337Z,98529.95
2018-05-04T23:46:27.283Z,98529.26
2018-05-04T23:48:56.728Z,98524.16
2018-05-04T23:51:25.676Z,98528.05
2018-05-04T23:53:54.323Z,98524.26
2018-05-04T23:56:23.820Z,98532.48
2018-05-04T23:58:52.553Z,98532.90
